Portada
METAR-TAF:

METAR-TAF

Aeroports :

Àstrakhan, Rússia

latitud: 46-17N, longitud: 048-00-23E, altitud: 0 m

Observació

L'informe es va fer fa 11 minuts, a les 03:30 UTC
Vent 6 kt del Sud
Temperatura -1°C
Humitat 93%
Pressió 1026 hPa
Visibilitat: 7000 m
Cel ennuvolat a una alçada de 2600 ft

METAR: URWA 240330Z 19003MPS 7000 BKN026 M01/M02 Q1026 R27/010070 NOSIG RMK QFE771/1029

Hora: 07:41 (03:41 UTC)

Pronòstic

L'informe es va fer fa 1 hora i 41 minuts, a les 02:00 UTC
Pronòstic vàlid del 24 a les 03 UTC al 24 a les 12 UTC
Vent 6 kt del Sud amb ràfegues de 16 kt
Visibilitat: 6000 m
Cel ennuvolat a una alçada de 1600 ft
Temporalment
l' 24 a les 03 UTC al 24 a les 06 UTC
Visibilitat: 2100 m
Cel ennuvolat a una alçada de 700 ft
boirina

TAF: URWA 240200Z 2403/2412 19003G08MPS 6000 BKN016 TEMPO 2403/2406 2100 BR BKN007

Observacions i pronòstics meteorològics de més de 4000 aeroports (METAR i TAF).

Les estacions disponibles són els punts grocs i vermells al mapa.

Posi el ratolí al punt desitjat per veure el nom de l'estació.

Feu clic per veure les observacions i els pronòstics meteorològics.

Per canviar el mapa: feu clic els botons verds amb una creu de color negre per apropar; al botó verd amb un guió per allunyar la imatge; o en les fletxes verdes per a mapes adjacents.


METAR-TAF: